Time;durP1;ratioP1;P1;durP2;ratioP2;P2;SDS_P1;SDS_P2;PMS_P1;PMS_P2;Temp;Humidity;BMP_temperature;BMP_pressure;BME280_temperature;BME280_humidity;BME280_pressure;Samples;Min_cycle;Max_cycle;Signal;HPM_P1;HPM_P2
2022/05/14 00:00:01;;;;;;;1.40;1.30;;;9.90;99.90;;;;;;503042;236;28369;-69
2022/05/14 00:02:02;;;;;;;1.60;1.50;;;9.80;99.90;;;;;;502505;236;27974;-70
2022/05/14 00:04:03;;;;;;;2.20;1.40;;;9.80;99.90;;;;;;503158;236;27852;-71
2022/05/14 00:06:05;;;;;;;1.40;1.30;;;9.70;99.90;;;;;;503158;236;27969;-70
2022/05/14 00:08:06;;;;;;;1.50;1.40;;;9.70;99.90;;;;;;503089;236;27968;-70
2022/05/14 00:10:07;;;;;;;1.80;1.37;;;9.60;99.90;;;;;;503135;236;27659;-70
2022/05/14 00:14:28;;;;;;;1.33;1.33;;;9.60;99.90;;;;;;503137;236;28456;-70
2022/05/14 00:16:31;;;;;;;1.37;1.37;;;9.60;99.90;;;;;;503153;236;27905;-70
2022/05/14 00:18:31;;;;;;;1.20;1.20;;;9.70;99.90;;;;;;503024;236;27947;-71
2022/05/14 00:20:32;;;;;;;1.50;1.40;;;9.60;99.90;;;;;;503155;236;27936;-70
2022/05/14 00:22:33;;;;;;;1.30;1.30;;;9.60;99.90;;;;;;503159;236;27926;-70
2022/05/14 00:24:34;;;;;;;1.23;1.23;;;9.60;99.90;;;;;;503106;236;27871;-71
2022/05/14 00:26:36;;;;;;;1.60;1.50;;;9.50;99.90;;;;;;503123;236;27917;-71
2022/05/14 00:28:37;;;;;;;1.40;1.40;;;9.40;99.90;;;;;;503106;236;27911;-69
2022/05/14 00:30:38;;;;;;;1.57;1.40;;;9.40;99.90;;;;;;503120;236;27956;-70
2022/05/14 00:32:39;;;;;;;1.30;1.20;;;9.50;99.90;;;;;;503129;236;28039;-69
2022/05/14 00:34:41;;;;;;;1.60;1.50;;;9.50;99.90;;;;;;503131;236;28033;-70
2022/05/14 00:36:43;;;;;;;1.30;1.20;;;9.50;99.90;;;;;;503123;236;27540;-70
2022/05/14 00:38:43;;;;;;;1.57;1.50;;;9.50;99.90;;;;;;503055;236;27904;-69
2022/05/14 00:40:48;;;;;;;1.20;1.20;;;9.40;99.90;;;;;;503111;236;27953;-71
2022/05/14 00:42:46;;;;;;;1.50;1.40;;;9.50;99.90;;;;;;502886;236;27887;-70
2022/05/14 00:44:47;;;;;;;1.10;1.10;;;9.50;99.90;;;;;;503112;236;27612;-71
2022/05/14 00:46:48;;;;;;;1.40;1.30;;;9.50;99.90;;;;;;503100;236;28472;-70
2022/05/14 00:48:50;;;;;;;1.63;1.33;;;9.30;99.90;;;;;;503112;236;28322;-70
2022/05/14 00:50:51;;;;;;;1.40;1.40;;;9.30;99.90;;;;;;502971;236;28529;-74
2022/05/14 00:52:52;;;;;;;1.40;1.30;;;9.20;99.90;;;;;;503127;236;28258;-69
2022/05/14 00:54:53;;;;;;;1.50;1.40;;;9.30;99.90;;;;;;503125;236;28598;-72
2022/05/14 00:56:54;;;;;;;2.63;1.47;;;9.30;99.90;;;;;;503117;236;28057;-69
2022/05/14 00:58:56;;;;;;;1.40;1.30;;;9.30;99.90;;;;;;503116;236;28032;-71
2022/05/14 01:00:57;;;;;;;1.47;1.33;;;9.30;99.90;;;;;;503058;236;28025;-70
2022/05/14 01:02:58;;;;;;;1.27;1.20;;;9.20;99.90;;;;;;503123;236;27882;-70
2022/05/14 01:05:00;;;;;;;1.30;1.30;;;9.10;99.90;;;;;;503125;236;28006;-71
2022/05/14 01:07:01;;;;;;;1.30;1.30;;;9.10;99.90;;;;;;503109;236;27434;-70
2022/05/14 01:09:04;;;;;;;1.30;1.30;;;9.10;99.90;;;;;;503106;236;28074;-70
2022/05/14 01:11:03;;;;;;;1.20;1.10;;;9.10;99.90;;;;;;502953;236;27586;-69
2022/05/14 01:13:05;;;;;;;1.20;1.20;;;9.10;99.90;;;;;;503151;236;27834;-69
2022/05/14 01:15:06;;;;;;;1.60;1.50;;;9.10;99.90;;;;;;503112;236;28087;-69
2022/05/14 01:17:07;;;;;;;1.73;1.30;;;9.10;99.90;;;;;;503094;236;27997;-69
2022/05/14 01:19:10;;;;;;;1.60;1.50;;;9.20;99.90;;;;;;503114;236;27918;-70
2022/05/14 01:21:09;;;;;;;1.90;1.60;;;9.10;99.90;;;;;;503024;236;27707;-71
2022/05/14 01:23:11;;;;;;;1.40;1.40;;;9.10;99.90;;;;;;503138;236;27798;-70
2022/05/14 01:27:31;;;;;;;1.50;1.33;;;8.90;99.90;;;;;;503105;236;27917;-67
2022/05/14 01:29:33;;;;;;;1.97;1.50;;;8.90;99.90;;;;;;503130;236;27869;-70
2022/05/14 01:31:34;;;;;;;1.20;1.20;;;8.90;99.90;;;;;;503094;236;28077;-73
2022/05/14 01:33:36;;;;;;;1.50;1.40;;;9.00;99.90;;;;;;503080;236;27898;-69
2022/05/14 01:35:36;;;;;;;1.23;1.20;;;9.00;99.90;;;;;;503075;236;27958;-71
2022/05/14 01:37:38;;;;;;;1.13;1.13;;;9.00;99.90;;;;;;503144;236;28165;-70
2022/05/14 01:39:41;;;;;;;1.30;1.20;;;9.00;99.90;;;;;;503117;236;27907;-70
2022/05/14 01:41:42;;;;;;;1.30;1.23;;;9.00;99.90;;;;;;503139;236;27614;-70
2022/05/14 01:43:43;;;;;;;1.83;1.30;;;8.90;99.90;;;;;;503093;236;27470;-69
2022/05/14 01:45:45;;;;;;;1.20;1.20;;;8.90;99.90;;;;;;503104;236;27969;-70
2022/05/14 01:47:46;;;;;;;1.40;1.30;;;8.90;99.90;;;;;;503137;236;28384;-73
2022/05/14 01:49:47;;;;;;;1.40;1.30;;;8.80;99.90;;;;;;503134;236;28466;-70
2022/05/14 01:51:48;;;;;;;1.50;1.50;;;8.90;99.90;;;;;;503141;236;28507;-69
2022/05/14 01:53:50;;;;;;;1.40;1.30;;;8.80;99.90;;;;;;503129;236;28513;-70
2022/05/14 01:55:51;;;;;;;1.50;1.47;;;8.90;99.90;;;;;;503037;236;28137;-69
2022/05/14 01:57:52;;;;;;;1.47;1.37;;;8.80;99.90;;;;;;503162;236;27711;-73
2022/05/14 01:59:53;;;;;;;1.30;1.30;;;8.80;99.90;;;;;;503118;236;27449;-69
2022/05/14 02:01:55;;;;;;;1.50;1.40;;;8.80;99.90;;;;;;503109;236;27999;-70
2022/05/14 02:03:56;;;;;;;1.63;1.53;;;8.70;99.90;;;;;;503101;236;27923;-70
2022/05/14 02:05:59;;;;;;;2.03;1.53;;;8.60;99.90;;;;;;503121;236;27925;-70
2022/05/14 02:08:00;;;;;;;1.77;1.43;;;8.70;99.90;;;;;;503148;236;27984;-75
2022/05/14 02:10:02;;;;;;;2.77;1.53;;;8.70;99.90;;;;;;503111;236;27686;-70
2022/05/14 02:12:03;;;;;;;2.30;1.67;;;8.70;99.90;;;;;;503083;236;27889;-70
2022/05/14 02:14:04;;;;;;;1.50;1.40;;;8.70;99.90;;;;;;503095;236;28409;-69
2022/05/14 02:16:05;;;;;;;1.57;1.47;;;8.70;99.90;;;;;;503089;236;28091;-69
2022/05/14 02:18:07;;;;;;;2.03;1.37;;;8.70;99.90;;;;;;503135;236;28077;-72
2022/05/14 02:20:08;;;;;;;1.67;1.57;;;8.60;99.90;;;;;;503143;236;28254;-69
2022/05/14 02:22:09;;;;;;;1.50;1.40;;;8.50;99.90;;;;;;503133;236;28356;-73
2022/05/14 02:24:10;;;;;;;1.60;1.50;;;8.40;99.90;;;;;;503098;236;27870;-69
2022/05/14 02:26:12;;;;;;;1.30;1.30;;;8.40;99.90;;;;;;503103;236;28039;-70
2022/05/14 02:28:13;;;;;;;1.70;1.60;;;8.50;99.90;;;;;;503106;236;27787;-70
2022/05/14 02:30:14;;;;;;;1.30;1.30;;;8.50;99.90;;;;;;503138;236;28151;-69
2022/05/14 02:32:15;;;;;;;1.60;1.50;;;8.40;99.90;;;;;;503132;236;27983;-74
2022/05/14 02:34:17;;;;;;;1.37;1.30;;;8.40;99.90;;;;;;502874;236;27908;-69
2022/05/14 02:36:18;;;;;;;1.67;1.40;;;8.30;99.90;;;;;;503084;236;27841;-69
2022/05/14 02:38:19;;;;;;;1.60;1.50;;;8.40;99.90;;;;;;503124;236;27837;-70
2022/05/14 02:40:21;;;;;;;1.60;1.53;;;8.40;99.90;;;;;;503159;236;28037;-70
2022/05/14 02:42:22;;;;;;;1.30;1.30;;;8.30;99.90;;;;;;503142;236;27829;-73
2022/05/14 02:44:23;;;;;;;1.53;1.50;;;8.30;99.90;;;;;;503106;236;27926;-70
2022/05/14 02:46:24;;;;;;;1.67;1.43;;;8.20;99.90;;;;;;503115;236;27950;-70
2022/05/14 02:48:25;;;;;;;2.40;1.33;;;8.20;99.90;;;;;;503137;236;28180;-70
2022/05/14 02:50:27;;;;;;;1.60;1.50;;;8.20;99.90;;;;;;503122;236;27964;-69
2022/05/14 02:52:28;;;;;;;1.60;1.50;;;8.10;99.90;;;;;;503141;236;27663;-72
2022/05/14 02:54:29;;;;;;;1.37;1.27;;;8.10;99.90;;;;;;503139;236;28218;-70
2022/05/14 02:56:30;;;;;;;1.47;1.37;;;8.00;99.90;;;;;;503128;236;28458;-71
2022/05/14 03:00:51;;;;;;;1.40;1.30;;;8.00;99.90;;;;;;503173;236;27785;-72
2022/05/14 03:02:52;;;;;;;1.40;1.30;;;8.00;99.90;;;;;;503137;236;27899;-72
2022/05/14 03:05:01;;;;;;;1.40;1.30;;;7.90;99.90;;;;;;503068;236;28048;-69
2022/05/14 03:07:01;;;;;;;1.30;1.30;;;7.90;99.90;;;;;;503113;236;27611;-69
2022/05/14 03:09:02;;;;;;;1.40;1.30;;;7.90;99.90;;;;;;503147;236;28518;-69
2022/05/14 03:11:03;;;;;;;1.67;1.57;;;7.90;99.90;;;;;;503159;236;27796;-69
2022/05/14 03:13:05;;;;;;;1.53;1.43;;;7.80;99.90;;;;;;503112;236;28196;-70
2022/05/14 03:15:06;;;;;;;1.57;1.47;;;7.80;99.90;;;;;;503111;236;28335;-70
2022/05/14 03:17:07;;;;;;;1.50;1.40;;;7.80;99.90;;;;;;503117;236;28442;-70
2022/05/14 03:19:08;;;;;;;1.70;1.60;;;7.80;99.90;;;;;;503161;236;28964;-70
2022/05/14 03:21:10;;;;;;;1.37;1.37;;;7.80;99.90;;;;;;503156;236;28238;-70
2022/05/14 03:23:11;;;;;;;1.60;1.50;;;7.80;99.90;;;;;;503166;236;27967;-69
2022/05/14 03:25:12;;;;;;;1.67;1.30;;;7.70;99.90;;;;;;503148;236;27935;-70
2022/05/14 03:27:13;;;;;;;1.50;1.50;;;7.70;99.90;;;;;;503138;236;28001;-71
2022/05/14 03:29:15;;;;;;;1.50;1.40;;;7.70;99.90;;;;;;503122;236;27941;-70
2022/05/14 03:31:16;;;;;;;1.50;1.50;;;7.70;99.90;;;;;;503158;236;27805;-69
2022/05/14 03:33:17;;;;;;;1.57;1.47;;;7.70;99.90;;;;;;503169;236;28014;-69
2022/05/14 03:35:18;;;;;;;2.23;1.50;;;7.70;99.90;;;;;;503147;236;27529;-69
2022/05/14 03:37:20;;;;;;;1.37;1.37;;;7.80;99.90;;;;;;503108;236;28140;-69
2022/05/14 03:39:21;;;;;;;1.70;1.60;;;7.80;99.90;;;;;;503095;236;27857;-70
2022/05/14 03:41:22;;;;;;;1.57;1.57;;;7.80;99.90;;;;;;503157;236;27823;-71
2022/05/14 03:43:23;;;;;;;2.43;1.57;;;7.80;99.90;;;;;;503135;236;27972;-72
2022/05/14 03:45:25;;;;;;;1.47;1.40;;;7.80;99.90;;;;;;503140;236;27730;-70
2022/05/14 03:47:26;;;;;;;1.50;1.40;;;7.80;99.90;;;;;;503107;236;27999;-71
2022/05/14 03:49:27;;;;;;;1.80;1.70;;;7.70;99.90;;;;;;503112;236;27917;-70
2022/05/14 03:51:29;;;;;;;1.30;1.30;;;7.70;99.90;;;;;;503122;236;27923;-70
2022/05/14 03:53:30;;;;;;;1.53;1.50;;;7.70;99.90;;;;;;503145;236;27994;-69
2022/05/14 03:55:31;;;;;;;1.50;1.40;;;7.70;99.90;;;;;;503132;236;27917;-69
2022/05/14 03:57:32;;;;;;;1.47;1.37;;;7.70;99.90;;;;;;503092;236;27706;-71
2022/05/14 03:59:33;;;;;;;2.17;1.97;;;7.70;99.90;;;;;;503133;236;27958;-70
2022/05/14 04:01:35;;;;;;;1.50;1.40;;;7.70;99.90;;;;;;503134;236;28396;-71
2022/05/14 04:03:36;;;;;;;1.20;1.20;;;7.60;99.90;;;;;;503151;236;27496;-73
2022/05/14 04:05:37;;;;;;;1.47;1.37;;;7.70;99.90;;;;;;503124;236;27780;-70
2022/05/14 04:07:39;;;;;;;1.30;1.30;;;7.80;99.90;;;;;;503140;236;27923;-70
2022/05/14 04:09:41;;;;;;;1.43;1.40;;;7.70;99.90;;;;;;503180;236;27792;-70
2022/05/14 04:11:42;;;;;;;1.27;1.27;;;7.80;99.90;;;;;;503162;236;27629;-69
2022/05/14 04:13:43;;;;;;;1.40;1.30;;;7.80;99.90;;;;;;503134;236;28216;-71
2022/05/14 04:15:44;;;;;;;1.60;1.50;;;7.80;99.90;;;;;;503117;236;28434;-71
2022/05/14 04:17:46;;;;;;;1.57;1.47;;;7.90;99.90;;;;;;503110;236;28538;-70
2022/05/14 04:19:47;;;;;;;1.60;1.50;;;7.90;99.90;;;;;;503150;236;27812;-72
2022/05/14 04:21:48;;;;;;;1.60;1.50;;;7.90;99.90;;;;;;503128;236;27986;-74
2022/05/14 04:23:50;;;;;;;1.50;1.40;;;7.80;99.90;;;;;;503071;236;27869;-70
2022/05/14 04:25:51;;;;;;;1.90;1.60;;;7.80;99.90;;;;;;503014;236;28433;-70
2022/05/14 04:27:52;;;;;;;1.37;1.30;;;7.80;99.90;;;;;;502847;236;29034;-69
2022/05/14 04:29:53;;;;;;;1.60;1.50;;;7.80;99.90;;;;;;503107;236;28140;-70
2022/05/14 04:31:55;;;;;;;1.47;1.37;;;7.80;99.90;;;;;;503123;236;28428;-69
2022/05/14 04:33:57;;;;;;;1.53;1.43;;;7.90;99.90;;;;;;503079;236;27814;-69
2022/05/14 04:35:57;;;;;;;1.43;1.33;;;7.80;99.90;;;;;;503073;236;27545;-69
2022/05/14 04:37:58;;;;;;;1.40;1.30;;;7.80;99.90;;;;;;503105;236;27872;-69
2022/05/14 04:40:00;;;;;;;1.40;1.30;;;7.90;99.90;;;;;;503141;236;27897;-69
2022/05/14 04:42:01;;;;;;;1.40;1.40;;;7.90;99.90;;;;;;503106;236;27831;-72
2022/05/14 04:44:02;;;;;;;1.60;1.50;;;7.90;99.90;;;;;;503086;236;27902;-70
2022/05/14 04:46:03;;;;;;;1.10;1.10;;;8.00;99.90;;;;;;503032;236;27962;-71
2022/05/14 04:48:05;;;;;;;1.67;1.57;;;8.00;99.90;;;;;;503026;236;27862;-69
2022/05/14 04:50:06;;;;;;;1.20;1.20;;;8.00;99.90;;;;;;503084;236;27921;-69
2022/05/14 04:52:07;;;;;;;1.60;1.50;;;8.00;99.90;;;;;;503091;236;28163;-74
2022/05/14 04:54:08;;;;;;;1.50;1.40;;;8.10;99.90;;;;;;503107;236;27923;-70
2022/05/14 04:56:10;;;;;;;1.50;1.40;;;8.10;99.90;;;;;;503064;236;28075;-70
2022/05/14 04:58:11;;;;;;;1.30;1.30;;;8.30;99.90;;;;;;503064;236;27899;-69
2022/05/14 05:00:15;;;;;;;1.60;1.50;;;8.40;99.90;;;;;;503109;236;28055;-70
2022/05/14 05:04:36;;;;;;;1.20;1.20;;;8.40;99.90;;;;;;503157;236;28621;-69
2022/05/14 05:06:37;;;;;;;1.40;1.30;;;8.40;99.90;;;;;;503103;236;28523;-69
2022/05/14 05:08:38;;;;;;;2.30;1.50;;;8.40;99.90;;;;;;503162;236;28336;-69
2022/05/14 05:10:39;;;;;;;1.50;1.50;;;8.50;99.90;;;;;;503131;236;27976;-72
2022/05/14 05:12:41;;;;;;;1.80;1.70;;;8.60;99.90;;;;;;503129;236;27914;-70
2022/05/14 05:14:42;;;;;;;1.60;1.50;;;8.70;99.90;;;;;;503108;236;27825;-71
2022/05/14 05:16:43;;;;;;;1.70;1.60;;;8.70;99.90;;;;;;503034;236;28053;-69
2022/05/14 05:18:44;;;;;;;1.70;1.60;;;8.80;99.90;;;;;;503124;236;27893;-69
2022/05/14 05:20:46;;;;;;;1.50;1.40;;;8.80;99.90;;;;;;503140;236;28009;-71
2022/05/14 05:22:48;;;;;;;1.43;1.43;;;8.80;99.90;;;;;;503152;236;27980;-70
2022/05/14 05:24:48;;;;;;;1.50;1.40;;;9.00;99.90;;;;;;503079;236;27802;-70
2022/05/14 05:26:49;;;;;;;1.40;1.30;;;9.10;99.90;;;;;;503176;236;27925;-69
2022/05/14 05:28:51;;;;;;;1.60;1.50;;;9.20;99.90;;;;;;503154;236;27982;-70
2022/05/14 05:30:52;;;;;;;1.33;1.33;;;9.20;99.90;;;;;;503165;236;28047;-74
2022/05/14 05:32:53;;;;;;;1.83;1.73;;;9.20;99.90;;;;;;503131;236;28017;-69
2022/05/14 05:34:54;;;;;;;1.50;1.50;;;9.30;99.90;;;;;;503127;236;28024;-69
2022/05/14 05:36:56;;;;;;;1.93;1.80;;;9.50;99.90;;;;;;503121;236;28109;-69
2022/05/14 05:38:58;;;;;;;2.60;1.40;;;9.60;99.90;;;;;;503140;236;28457;-70
2022/05/14 05:40:58;;;;;;;1.50;1.40;;;9.60;99.90;;;;;;503081;236;28404;-71
2022/05/14 05:42:59;;;;;;;1.67;1.57;;;9.70;99.90;;;;;;503126;236;28412;-69
2022/05/14 05:45:01;;;;;;;1.60;1.60;;;9.80;99.90;;;;;;503087;236;28386;-69
2022/05/14 05:47:02;;;;;;;1.73;1.63;;;9.90;99.90;;;;;;503074;236;29071;-69
2022/05/14 05:49:05;;;;;;;1.60;1.50;;;10.00;99.90;;;;;;503142;236;27797;-70
2022/05/14 05:51:04;;;;;;;1.50;1.50;;;10.10;99.90;;;;;;503054;236;27956;-72
2022/05/14 05:53:06;;;;;;;1.60;1.60;;;10.10;99.90;;;;;;503136;236;28278;-69
2022/05/14 05:57:26;;;;;;;1.80;1.70;;;10.30;99.90;;;;;;503108;236;27953;-69
2022/05/14 05:59:28;;;;;;;2.17;1.40;;;10.40;99.90;;;;;;503123;236;27907;-70
2022/05/14 06:01:29;;;;;;;1.70;1.60;;;10.40;99.90;;;;;;503126;236;28099;-70
2022/05/14 06:03:30;;;;;;;1.40;1.40;;;10.50;99.90;;;;;;503135;236;27701;-69
2022/05/14 06:05:31;;;;;;;3.10;1.67;;;10.70;99.90;;;;;;503096;236;27918;-69
2022/05/14 06:07:33;;;;;;;1.47;1.37;;;10.70;99.90;;;;;;503151;236;27982;-69
2022/05/14 06:09:34;;;;;;;1.53;1.43;;;10.80;99.90;;;;;;503132;236;28031;-69
2022/05/14 06:11:35;;;;;;;1.70;1.60;;;10.90;99.90;;;;;;503139;236;28395;-71
2022/05/14 06:13:36;;;;;;;1.63;1.53;;;10.90;99.90;;;;;;503117;236;28419;-69
2022/05/14 06:15:39;;;;;;;1.30;1.30;;;11.00;99.90;;;;;;503114;236;28441;-70
2022/05/14 06:17:39;;;;;;;1.93;1.70;;;11.10;99.90;;;;;;503062;236;28183;-69
2022/05/14 06:19:42;;;;;;;1.40;1.40;;;11.20;99.90;;;;;;503128;236;28028;-70
2022/05/14 06:21:41;;;;;;;1.77;1.67;;;11.20;99.90;;;;;;502882;236;28140;-72
2022/05/14 06:23:43;;;;;;;1.70;1.60;;;11.30;99.90;;;;;;502921;236;28136;-70
2022/05/14 06:25:44;;;;;;;1.33;1.33;;;11.40;99.90;;;;;;502836;236;28038;-70
2022/05/14 06:27:46;;;;;;;1.73;1.63;;;11.50;99.90;;;;;;503072;236;28186;-71
2022/05/14 06:29:48;;;;;;;1.70;1.60;;;11.60;99.90;;;;;;503137;236;28222;-70
2022/05/14 06:31:49;;;;;;;2.17;1.53;;;11.70;99.90;;;;;;503122;236;28122;-69
2022/05/14 06:33:50;;;;;;;1.70;1.63;;;11.80;99.90;;;;;;503120;236;28830;-70
2022/05/14 06:35:51;;;;;;;1.60;1.47;;;11.90;99.90;;;;;;503122;236;28672;-70
2022/05/14 06:37:53;;;;;;;2.33;1.37;;;12.00;99.90;;;;;;503150;236;28686;-70
2022/05/14 06:39:54;;;;;;;1.50;1.40;;;12.00;99.90;;;;;;503116;236;28826;-71
2022/05/14 06:41:55;;;;;;;2.10;1.80;;;12.10;99.90;;;;;;503063;236;28136;-70
2022/05/14 06:43:56;;;;;;;1.77;1.67;;;12.20;99.90;;;;;;503177;236;28512;-70
2022/05/14 06:45:58;;;;;;;1.60;1.50;;;12.20;99.90;;;;;;503117;236;28403;-72
2022/05/14 06:47:59;;;;;;;1.60;1.50;;;12.20;99.90;;;;;;503147;236;28471;-70
2022/05/14 06:50:00;;;;;;;1.60;1.50;;;12.30;99.90;;;;;;503128;236;28329;-69
2022/05/14 06:52:01;;;;;;;2.70;1.67;;;12.40;99.90;;;;;;503139;236;28050;-70
2022/05/14 06:54:03;;;;;;;1.50;1.40;;;12.40;99.90;;;;;;503162;236;28163;-70
2022/05/14 06:56:04;;;;;;;2.30;1.37;;;12.50;99.90;;;;;;503138;236;28346;-71
2022/05/14 06:58:05;;;;;;;1.60;1.50;;;12.50;99.90;;;;;;503138;236;28745;-70
2022/05/14 07:00:07;;;;;;;1.57;1.47;;;12.50;99.90;;;;;;503102;236;28867;-70
2022/05/14 07:02:08;;;;;;;1.70;1.60;;;11.60;99.90;;;;;;503080;236;28901;-70
2022/05/14 07:06:41;;;;;;;1.63;1.53;;;12.80;99.90;;;;;;503086;236;28908;-71
2022/05/14 07:08:42;;;;;;;1.53;1.43;;;13.00;99.90;;;;;;503109;236;28050;-72
2022/05/14 07:10:43;;;;;;;1.87;1.77;;;13.00;99.90;;;;;;503127;236;28778;-69
2022/05/14 07:12:44;;;;;;;1.40;1.30;;;12.90;99.90;;;;;;503155;236;28463;-70
2022/05/14 07:14:46;;;;;;;2.77;1.50;;;13.00;99.90;;;;;;503144;236;28462;-69
2022/05/14 07:16:47;;;;;;;3.13;1.83;;;13.10;99.90;;;;;;503138;236;29037;-70
2022/05/14 07:18:48;;;;;;;1.60;1.50;;;13.30;99.90;;;;;;503144;236;29462;-72
2022/05/14 07:20:49;;;;;;;2.00;1.80;;;13.40;99.90;;;;;;503146;236;28244;-70
2022/05/14 07:22:51;;;;;;;1.60;1.50;;;13.40;99.90;;;;;;503131;236;28364;-70
2022/05/14 07:24:52;;;;;;;2.20;1.60;;;13.40;99.90;;;;;;503148;236;28123;-70
2022/05/14 07:26:53;;;;;;;1.70;1.60;;;13.30;99.90;;;;;;503124;236;28169;-70
2022/05/14 07:28:54;;;;;;;1.63;1.53;;;13.30;99.90;;;;;;503190;236;28279;-70
2022/05/14 07:30:56;;;;;;;1.50;1.40;;;13.40;99.90;;;;;;503181;236;28760;-70
2022/05/14 07:32:58;;;;;;;2.37;2.27;;;;;;;;;;503086;236;28294;-70
2022/05/14 07:34:59;;;;;;;1.53;1.43;;;13.50;99.90;;;;;;503143;236;26610;-71
2022/05/14 07:37:01;;;;;;;1.60;1.50;;;13.60;99.90;;;;;;503161;236;28227;-71
2022/05/14 07:39:02;;;;;;;1.73;1.60;;;13.60;99.90;;;;;;503091;236;28158;-70
2022/05/14 07:41:03;;;;;;;6.00;2.00;;;13.70;99.90;;;;;;503155;236;28163;-71
2022/05/14 07:43:04;;;;;;;1.80;1.60;;;14.00;99.90;;;;;;503148;236;28274;-70
2022/05/14 07:45:06;;;;;;;1.60;1.50;;;13.70;99.90;;;;;;503132;236;28408;-70
2022/05/14 07:47:07;;;;;;;1.73;1.63;;;14.10;99.90;;;;;;503152;236;28531;-75
2022/05/14 07:49:10;;;;;;;1.60;1.50;;;;;;;;;;503162;236;28235;-70
2022/05/14 07:51:10;;;;;;;1.63;1.53;;;14.10;99.90;;;;;;503134;236;26581;-71
2022/05/14 07:53:12;;;;;;;1.83;1.60;;;14.10;99.90;;;;;;503110;236;28336;-70
2022/05/14 07:55:13;;;;;;;1.83;1.70;;;14.20;99.90;;;;;;503105;236;28212;-70
2022/05/14 07:57:16;;;;;;;1.87;1.70;;;14.40;99.90;;;;;;503183;236;28133;-70
2022/05/14 07:59:16;;;;;;;3.47;2.10;;;14.50;99.90;;;;;;503064;236;28919;-71
2022/05/14 08:01:17;;;;;;;2.87;1.90;;;14.50;99.90;;;;;;503148;236;28662;-70
2022/05/14 08:03:18;;;;;;;2.07;1.50;;;14.50;99.90;;;;;;503124;236;28390;-71
2022/05/14 08:05:22;;;;;;;2.00;1.73;;;14.40;99.90;;;;;;503152;236;28301;-70
2022/05/14 08:07:23;;;;;;;1.63;1.53;;;14.30;99.90;;;;;;503093;236;29351;-70
2022/05/14 08:09:25;;;;;;;1.60;1.50;;;14.40;99.90;;;;;;503170;236;28315;-71
2022/05/14 08:11:27;;;;;;;1.43;1.33;;;14.40;99.90;;;;;;503162;236;28282;-69
2022/05/14 08:13:29;;;;;;;1.57;1.47;;;14.40;99.90;;;;;;503133;236;28278;-71
2022/05/14 08:15:29;;;;;;;1.30;1.30;;;14.50;99.90;;;;;;503068;236;28226;-70
2022/05/14 08:17:30;;;;;;;1.90;1.80;;;14.60;99.90;;;;;;503098;236;28955;-70
2022/05/14 08:19:32;;;;;;;3.77;1.80;;;14.60;99.90;;;;;;503164;236;29003;-71
2022/05/14 08:26:12;;;;;;;1.80;1.70;;;14.90;99.90;;;;;;503179;236;28968;-70
2022/05/14 08:28:13;;;;;;;3.50;1.67;;;15.00;99.90;;;;;;503126;236;28344;-70
2022/05/14 08:30:15;;;;;;;1.60;1.60;;;15.10;99.90;;;;;;503137;236;28559;-70
2022/05/14 08:32:21;;;;;;;1.73;1.50;;;15.10;99.90;;;;;;503122;236;28787;-70
2022/05/14 08:34:20;;;;;;;1.93;1.80;;;15.10;99.90;;;;;;503028;236;28539;-72
2022/05/14 08:36:22;;;;;;;1.60;1.50;;;15.20;99.90;;;;;;503108;236;28896;-70
2022/05/14 08:38:23;;;;;;;1.63;1.50;;;15.30;99.90;;;;;;503120;236;29251;-70
2022/05/14 08:40:24;;;;;;;1.63;1.60;;;15.50;99.90;;;;;;503122;236;29980;-70
2022/05/14 08:42:25;;;;;;;2.10;1.90;;;15.50;99.90;;;;;;503162;236;29214;-70
2022/05/14 08:44:27;;;;;;;2.20;2.00;;;15.70;99.90;;;;;;503140;236;28817;-70
2022/05/14 08:46:28;;;;;;;1.70;1.60;;;15.70;99.90;;;;;;503113;236;28797;-70
2022/05/14 08:48:29;;;;;;;2.07;1.90;;;15.80;99.90;;;;;;503104;236;28817;-71
2022/05/14 08:50:30;;;;;;;1.80;1.70;;;15.80;99.90;;;;;;503124;236;28866;-70
2022/05/14 08:52:32;;;;;;;2.13;1.70;;;15.70;99.90;;;;;;503135;236;28758;-70
2022/05/14 08:54:33;;;;;;;1.90;1.70;;;15.60;99.90;;;;;;503128;236;28895;-70
2022/05/14 08:56:36;;;;;;;2.60;1.50;;;15.60;99.90;;;;;;503112;236;28760;-70
2022/05/14 08:58:35;;;;;;;1.40;1.40;;;15.50;99.90;;;;;;502964;236;28875;-70
2022/05/14 09:00:37;;;;;;;1.80;1.70;;;15.40;99.90;;;;;;502803;236;29213;-71
2022/05/14 09:02:38;;;;;;;1.90;1.80;;;15.60;99.90;;;;;;503164;236;29251;-70
2022/05/14 09:04:39;;;;;;;1.80;1.70;;;15.80;99.90;;;;;;503112;236;28777;-74
2022/05/14 09:06:40;;;;;;;2.03;1.87;;;15.80;99.90;;;;;;503128;236;28742;-70
2022/05/14 09:08:42;;;;;;;1.63;1.50;;;15.90;99.90;;;;;;503109;236;28816;-71
2022/05/14 09:10:43;;;;;;;1.47;1.37;;;16.00;99.90;;;;;;503169;236;28792;-70
2022/05/14 09:12:44;;;;;;;1.70;1.60;;;15.90;99.90;;;;;;503142;236;28742;-70
2022/05/14 09:14:45;;;;;;;1.60;1.50;;;15.70;99.90;;;;;;503135;236;28891;-70
2022/05/14 09:16:50;;;;;;;3.30;1.87;;;15.70;99.90;;;;;;503094;236;28774;-70
2022/05/14 09:18:49;;;;;;;1.73;1.63;;;15.90;99.90;;;;;;502901;236;28797;-70
2022/05/14 09:20:50;;;;;;;2.37;1.80;;;16.00;99.90;;;;;;503184;236;28831;-71
2022/05/14 09:22:51;;;;;;;2.17;1.97;;;15.90;99.90;;;;;;503182;236;29276;-71
2022/05/14 09:24:53;;;;;;;1.60;1.50;;;16.10;99.90;;;;;;503180;236;29331;-70
2022/05/14 09:26:54;;;;;;;1.90;1.77;;;16.00;99.90;;;;;;503159;236;29253;-71
2022/05/14 09:28:55;;;;;;;2.77;1.70;;;16.00;99.90;;;;;;503089;236;28868;-71
2022/05/14 09:30:56;;;;;;;1.97;1.83;;;16.00;99.90;;;;;;503145;236;28746;-71
2022/05/14 09:32:58;;;;;;;3.77;2.20;;;16.50;99.90;;;;;;503127;236;28808;-70
2022/05/14 09:34:59;;;;;;;4.33;1.70;;;16.50;99.90;;;;;;503130;236;28771;-70
2022/05/14 09:37:00;;;;;;;2.87;1.93;;;16.40;99.90;;;;;;503125;236;28792;-71
2022/05/14 09:39:01;;;;;;;1.63;1.53;;;16.20;99.90;;;;;;503124;236;28756;-70
2022/05/14 09:41:03;;;;;;;1.80;1.70;;;16.20;99.90;;;;;;503193;236;28774;-71
2022/05/14 09:43:04;;;;;;;1.67;1.57;;;16.30;99.90;;;;;;503164;236;28796;-70
2022/05/14 09:45:05;;;;;;;2.50;1.70;;;16.40;99.90;;;;;;503143;236;28843;-70
2022/05/14 09:47:06;;;;;;;1.60;1.50;;;16.40;99.90;;;;;;503125;236;29324;-71
2022/05/14 09:49:08;;;;;;;2.07;1.60;;;16.50;99.90;;;;;;503089;236;29628;-70
2022/05/14 09:51:09;;;;;;;1.70;1.60;;;16.50;99.90;;;;;;503170;236;29308;-70
2022/05/14 09:53:10;;;;;;;2.20;2.10;;;16.40;99.90;;;;;;503211;236;28776;-72
2022/05/14 09:55:11;;;;;;;1.80;1.70;;;16.40;99.90;;;;;;503157;236;28810;-70
2022/05/14 09:57:13;;;;;;;1.40;1.30;;;16.30;99.90;;;;;;503117;236;28786;-70
2022/05/14 09:59:14;;;;;;;1.40;1.40;;;16.50;99.90;;;;;;503127;236;28773;-70
2022/05/14 10:01:17;;;;;;;1.50;1.40;;;16.70;99.90;;;;;;503173;236;28854;-71
2022/05/14 10:03:16;;;;;;;1.67;1.40;;;16.80;99.90;;;;;;503084;236;28829;-72
2022/05/14 10:05:18;;;;;;;1.50;1.40;;;16.80;99.90;;;;;;503121;236;28796;-71
2022/05/14 10:07:19;;;;;;;1.50;1.40;;;16.80;99.90;;;;;;503095;236;28803;-71
2022/05/14 10:09:20;;;;;;;2.30;1.53;;;17.00;99.90;;;;;;503135;236;28752;-71
2022/05/14 10:11:21;;;;;;;1.90;1.50;;;17.10;99.90;;;;;;503160;236;29334;-70
2022/05/14 10:13:23;;;;;;;1.90;1.80;;;17.10;99.90;;;;;;503138;236;29252;-71
2022/05/14 10:15:24;;;;;;;2.00;1.80;;;17.40;99.90;;;;;;503130;236;29208;-70
2022/05/14 10:17:25;;;;;;;1.53;1.40;;;17.40;99.90;;;;;;503128;236;29258;-72
2022/05/14 10:19:26;;;;;;;1.87;1.77;;;17.30;99.90;;;;;;503154;236;28865;-71
2022/05/14 10:21:28;;;;;;;2.00;1.73;;;17.20;99.90;;;;;;503173;236;28923;-70
2022/05/14 10:28:08;;;;;;;2.30;1.70;;;17.50;99.90;;;;;;503078;236;29442;-70
2022/05/14 10:30:13;;;;;;;3.43;2.00;;;17.30;99.90;;;;;;503145;236;29284;-70
2022/05/14 10:32:11;;;;;;;1.53;1.37;;;17.30;99.90;;;;;;502857;236;28817;-72
2022/05/14 10:34:12;;;;;;;1.90;1.30;;;17.50;99.90;;;;;;503146;236;28780;-71
2022/05/14 10:36:13;;;;;;;1.50;1.40;;;17.70;99.90;;;;;;503142;236;28777;-72
2022/05/14 10:38:15;;;;;;;1.90;1.53;;;17.40;99.90;;;;;;503154;236;28766;-70
2022/05/14 10:40:16;;;;;;;2.10;1.57;;;17.50;99.90;;;;;;503149;236;28899;-71
2022/05/14 10:42:18;;;;;;;2.13;1.50;;;17.50;99.90;;;;;;503145;236;28828;-70
2022/05/14 10:44:18;;;;;;;1.30;1.30;;;17.60;99.90;;;;;;503093;236;28876;-71
2022/05/14 10:46:20;;;;;;;3.13;1.80;;;17.70;99.90;;;;;;503150;236;28795;-71
2022/05/14 10:48:22;;;;;;;3.60;1.90;;;17.90;99.90;;;;;;503119;236;28811;-71
2022/05/14 10:50:22;;;;;;;2.17;1.73;;;18.10;99.90;;;;;;503095;236;29366;-71
2022/05/14 10:52:23;;;;;;;2.00;1.90;;;17.90;99.90;;;;;;503164;236;29893;-70
2022/05/14 10:54:25;;;;;;;2.07;1.47;;;17.90;99.90;;;;;;503159;236;29208;-71
2022/05/14 10:56:26;;;;;;;1.43;1.33;;;18.00;99.90;;;;;;503151;236;28794;-71
2022/05/14 10:58:36;;;;;;;1.73;1.50;;;17.80;99.90;;;;;;503137;236;28751;-70